createdAt,value
2022-08-10T00:04:23.470Z,9.55
2022-08-10T00:09:27.106Z,10.20
2022-08-10T00:14:31.394Z,9.90
2022-08-10T00:20:02.169Z,10.93
2022-08-10T00:24:58.185Z,11.32
2022-08-10T00:30:02.240Z,11.77
2022-08-10T00:35:06.806Z,12.65
2022-08-10T00:40:11.408Z,13.15
2022-08-10T00:45:14.995Z,13.13
2022-08-10T00:50:18.601Z,13.63
2022-08-10T00:55:22.356Z,13.73
2022-08-10T01:00:26.243Z,13.80
2022-08-10T01:05:29.706Z,13.68
2022-08-10T01:10:53.018Z,13.52
2022-08-10T01:16:04.767Z,14.40
2022-08-10T01:21:33.338Z,14.10
2022-08-10T01:27:04.936Z,14.32
2022-08-10T01:32:13.513Z,14.32
2022-08-10T01:37:24.779Z,14.53
2022-08-10T01:42:33.096Z,14.55
2022-08-10T01:47:41.773Z,15.55
2022-08-10T01:52:51.129Z,13.93
2022-08-10T01:57:57.040Z,14.13
2022-08-10T02:03:01.950Z,13.23
2022-08-10T02:08:08.895Z,12.80
2022-08-10T02:13:15.040Z,12.52
2022-08-10T02:18:24.379Z,12.10
2022-08-10T02:23:30.371Z,12.48
2022-08-10T02:28:36.167Z,11.05
2022-08-10T02:33:56.528Z,12.80
2022-08-10T02:39:05.200Z,12.43
2022-08-10T02:45:20.242Z,12.45
2022-08-10T02:49:48.514Z,12.10
2022-08-10T02:55:00.022Z,12.95
2022-08-10T03:00:20.930Z,11.85
2022-08-10T03:05:24.451Z,12.18
2022-08-10T03:10:39.995Z,13.52
2022-08-10T03:15:46.366Z,11.43
2022-08-10T03:20:51.536Z,12.18
2022-08-10T03:25:57.561Z,12.45
2022-08-10T03:31:02.705Z,12.00
2022-08-10T03:36:42.927Z,11.40
2022-08-10T03:41:38.206Z,11.50
2022-08-10T03:46:44.042Z,12.13
2022-08-10T03:51:48.126Z,11.68
2022-08-10T03:56:51.968Z,11.18
2022-08-10T04:02:44.711Z,11.80
2022-08-10T04:07:19.319Z,11.00
2022-08-10T04:12:23.224Z,11.65
2022-08-10T04:18:01.144Z,10.25
2022-08-10T04:22:53.685Z,12.02
2022-08-10T04:27:58.229Z,11.05
2022-08-10T04:33:03.818Z,10.32
2022-08-10T04:38:09.702Z,10.02
2022-08-10T04:43:13.748Z,10.45
2022-08-10T04:48:41.419Z,9.93
2022-08-10T04:54:02.707Z,10.38
2022-08-10T04:59:10.164Z,10.45
2022-08-10T05:04:36.625Z,9.70
2022-08-10T05:10:03.539Z,10.25
2022-08-10T05:15:12.356Z,9.75
2022-08-10T05:20:15.603Z,9.60
2022-08-10T05:25:20.577Z,9.18
2022-08-10T05:30:24.334Z,9.43
2022-08-10T05:35:56.554Z,9.93
2022-08-10T05:40:54.202Z,10.02
2022-08-10T05:46:19.211Z,8.60
2022-08-10T05:51:22.518Z,8.35
2022-08-10T05:56:27.041Z,9.82
2022-08-10T06:02:41.028Z,8.68
2022-08-10T06:07:21.916Z,8.02
2022-08-10T06:12:29.894Z,9.10
2022-08-10T06:17:35.988Z,8.60
2022-08-10T06:22:39.517Z,7.80
2022-08-10T06:27:44.234Z,7.78
2022-08-10T06:32:52.898Z,7.80
2022-08-10T06:37:58.798Z,7.00
2022-08-10T06:43:06.826Z,7.68
2022-08-10T06:48:30.149Z,8.18
2022-08-10T06:53:53.805Z,7.38
2022-08-10T06:59:14.579Z,7.18
2022-08-10T07:04:58.240Z,7.38
2022-08-10T07:10:09.750Z,7.07
2022-08-10T07:15:59.238Z,7.63
2022-08-10T07:20:58.746Z,7.75
2022-08-10T07:26:03.896Z,7.60
2022-08-10T07:31:31.119Z,7.95
2022-08-10T07:36:33.555Z,7.35
2022-08-10T07:41:48.516Z,7.95
2022-08-10T07:47:00.043Z,7.30
2022-08-10T07:52:08.367Z,6.95
2022-08-10T07:57:31.108Z,7.68
2022-08-10T08:02:54.365Z,7.18
2022-08-10T08:08:03.991Z,7.78
2022-08-10T08:13:09.075Z,7.60
2022-08-10T08:18:24.448Z,8.00
2022-08-10T08:24:09.317Z,6.93
2022-08-10T08:29:04.992Z,7.68
2022-08-10T08:34:09.185Z,7.90
2022-08-10T08:39:14.104Z,8.23
2022-08-10T08:44:39.296Z,7.43
2022-08-10T08:50:12.737Z,6.80
2022-08-10T08:56:05.121Z,7.63
2022-08-10T09:00:55.763Z,7.40
2022-08-10T09:06:24.031Z,7.53
2022-08-10T09:12:15.283Z,6.70
2022-08-10T09:17:39.486Z,6.85
2022-08-10T09:23:10.278Z,6.60
2022-08-10T09:28:26.731Z,6.60
2022-08-10T09:36:22.290Z,6.30
2022-08-10T09:40:12.687Z,6.55
2022-08-10T09:44:57.298Z,6.40
2022-08-10T09:50:25.002Z,6.55
2022-08-10T09:56:17.578Z,7.28
2022-08-10T10:01:58.300Z,8.15
2022-08-10T10:07:01.168Z,6.45
2022-08-10T10:12:14.596Z,6.63
2022-08-10T10:17:27.492Z,7.03
2022-08-10T10:22:41.760Z,7.28
2022-08-10T10:28:16.065Z,7.10
2022-08-10T10:33:57.602Z,7.07
2022-08-10T10:39:02.870Z,6.75
2022-08-10T10:44:17.149Z,7.25
2022-08-10T10:49:35.680Z,6.78
2022-08-10T10:54:59.216Z,6.45
2022-08-10T11:00:08.675Z,7.38
2022-08-10T11:05:43.013Z,6.82
2022-08-10T11:10:58.653Z,7.00
2022-08-10T11:16:35.966Z,6.78
2022-08-10T11:22:07.045Z,7.40
2022-08-10T11:27:25.560Z,7.18
2022-08-10T11:32:46.677Z,6.90
2022-08-10T11:38:31.999Z,6.53
2022-08-10T11:43:26.996Z,6.18
2022-08-10T11:49:04.132Z,7.30
2022-08-10T11:54:39.062Z,6.50
2022-08-10T11:59:42.289Z,7.38
2022-08-10T12:04:53.963Z,8.00
2022-08-10T12:10:10.939Z,6.63
2022-08-10T12:15:41.299Z,6.85
2022-08-10T12:20:48.173Z,6.18
2022-08-10T12:26:03.647Z,5.80
2022-08-10T12:31:11.282Z,6.00
2022-08-10T12:36:32.368Z,7.10
2022-08-10T12:41:58.992Z,6.32
2022-08-10T12:47:14.071Z,6.60
2022-08-10T12:52:33.424Z,6.13
2022-08-10T12:57:39.208Z,6.38
2022-08-10T13:02:48.871Z,7.43
2022-08-10T13:08:03.655Z,7.05
2022-08-10T13:13:32.908Z,6.78
2022-08-10T13:18:41.832Z,8.82
2022-08-10T13:24:19.600Z,6.00
2022-08-10T13:29:28.418Z,7.53
2022-08-10T13:34:44.658Z,7.20
2022-08-10T13:45:24.942Z,6.47
2022-08-10T13:50:33.553Z,7.37
2022-08-10T13:55:55.394Z,7.35
2022-08-10T14:01:01.917Z,7.13
2022-08-10T14:06:07.840Z,6.45
2022-08-10T14:11:18.118Z,6.75
2022-08-10T14:16:25.372Z,6.97
2022-08-10T14:21:30.864Z,6.25
2022-08-10T14:26:34.251Z,5.97
2022-08-10T14:32:00.347Z,7.43
2022-08-10T14:37:09.600Z,6.45
2022-08-10T14:42:27.192Z,7.03
2022-08-10T14:47:53.597Z,6.20
2022-08-10T14:53:05.599Z,6.22
2022-08-10T14:58:25.882Z,6.18
2022-08-10T15:03:58.861Z,6.60
2022-08-10T15:09:19.309Z,6.30
2022-08-10T15:14:42.564Z,6.22
2022-08-10T15:20:03.266Z,6.55
2022-08-10T15:25:18.115Z,6.00
2022-08-10T15:30:29.775Z,5.85
2022-08-10T15:40:50.638Z,6.00
2022-08-10T15:46:15.582Z,6.25
2022-08-10T15:51:28.253Z,6.60
2022-08-10T15:56:50.259Z,7.70
2022-08-10T16:02:15.152Z,7.05
2022-08-10T16:07:46.313Z,7.13
2022-08-10T16:13:50.858Z,7.28
2022-08-10T16:18:29.081Z,6.20
2022-08-10T16:23:36.966Z,5.57
2022-08-10T16:28:48.254Z,5.43
2022-08-10T16:33:55.085Z,6.22
2022-08-10T16:39:00.291Z,5.45
2022-08-10T16:44:07.334Z,6.40
2022-08-10T16:49:13.465Z,5.95
2022-08-10T16:54:27.081Z,6.30
2022-08-10T16:59:37.218Z,6.20
2022-08-10T17:04:44.481Z,5.60
2022-08-10T17:09:50.918Z,6.40
2022-08-10T17:15:09.737Z,5.07
2022-08-10T17:20:30.064Z,6.40
2022-08-10T17:25:45.925Z,5.43
2022-08-10T17:30:57.901Z,5.05
2022-08-10T17:36:04.770Z,5.63
2022-08-10T17:41:13.444Z,6.60
2022-08-10T17:46:17.843Z,6.03
2022-08-10T17:51:26.306Z,5.28
2022-08-10T17:56:34.745Z,5.60
2022-08-10T18:01:58.880Z,6.30
2022-08-10T18:07:07.621Z,6.65
2022-08-10T18:12:18.214Z,6.10
2022-08-10T18:17:26.318Z,7.38
2022-08-10T18:22:31.301Z,6.75
2022-08-10T18:28:01.238Z,6.95
2022-08-10T18:33:09.363Z,6.03
2022-08-10T18:38:15.107Z,5.93
2022-08-10T18:44:07.177Z,6.13
2022-08-10T18:49:06.756Z,6.07
2022-08-10T18:54:38.873Z,6.93
2022-08-10T19:00:03.672Z,6.07
2022-08-10T19:05:49.464Z,5.60
2022-08-10T19:11:31.107Z,5.68
2022-08-10T19:16:40.236Z,5.20
2022-08-10T19:21:51.696Z,6.43
2022-08-10T19:27:01.037Z,5.67
2022-08-10T19:32:41.740Z,6.80
2022-08-10T19:38:03.128Z,5.60
2022-08-10T19:43:59.967Z,5.60
2022-08-10T19:49:17.310Z,6.80
2022-08-10T19:54:58.425Z,4.95
2022-08-10T20:00:30.673Z,5.93
2022-08-10T20:06:18.296Z,6.40
2022-08-10T20:11:51.903Z,6.38
2022-08-10T20:17:27.194Z,6.10
2022-08-10T20:22:38.185Z,6.55
2022-08-10T20:28:00.983Z,5.63
2022-08-10T20:33:18.659Z,5.88
2022-08-10T20:38:36.095Z,5.80
2022-08-10T20:43:58.354Z,6.15
2022-08-10T20:49:42.065Z,5.88
2022-08-10T20:54:56.766Z,5.65
2022-08-10T21:00:15.795Z,6.82
2022-08-10T21:05:30.004Z,6.22
2022-08-10T21:10:54.767Z,6.30
2022-08-10T21:16:28.310Z,6.07
2022-08-10T21:21:59.358Z,6.78
2022-08-10T21:27:42.903Z,6.00
2022-08-10T21:32:59.457Z,5.93
2022-08-10T21:38:35.743Z,6.10
2022-08-10T21:43:45.931Z,6.53
2022-08-10T21:49:03.553Z,5.85
2022-08-10T21:54:17.402Z,5.72
2022-08-10T21:59:38.431Z,5.88
2022-08-10T22:04:44.773Z,7.05
2022-08-10T22:09:52.473Z,5.68
2022-08-10T22:14:56.320Z,6.57
2022-08-10T22:20:12.905Z,5.95
2022-08-10T22:25:54.921Z,6.07
2022-08-10T22:31:54.631Z,5.78
2022-08-10T22:37:04.013Z,5.47
2022-08-10T22:42:29.924Z,6.10
2022-08-10T22:47:58.869Z,6.03
2022-08-10T22:53:09.042Z,5.65
2022-08-10T22:58:16.933Z,5.25
2022-08-10T23:03:24.061Z,6.78
2022-08-10T23:08:41.260Z,5.60
2022-08-10T23:13:47.153Z,6.30
2022-08-10T23:18:53.491Z,6.20
2022-08-10T23:23:59.031Z,6.43
2022-08-10T23:29:05.474Z,6.90
2022-08-10T23:34:22.196Z,5.30
2022-08-10T23:39:33.123Z,5.82
2022-08-10T23:44:49.654Z,5.55
2022-08-10T23:49:58.815Z,6.40
2022-08-10T23:55:12.631Z,5.38
